Time;durP1;ratioP1;P1;durP2;ratioP2;P2;SDS_P1;SDS_P2;PMS_P1;PMS_P2;Temp;Humidity;BMP_temperature;BMP_pressure;BME280_temperature;BME280_humidity;BME280_pressure;Samples;Min_cycle;Max_cycle;Signal;HPM_P1;HPM_P2
2022/05/14 00:01:27;;;;;;;12.40;4.97;;;13.40;99.90;;;;;;5093803;28;20028;-82
2022/05/14 00:03:54;;;;;;;19.20;6.63;;;13.40;99.90;;;;;;5094977;28;20099;-82
2022/05/14 00:06:22;;;;;;;14.18;5.45;;;13.40;99.90;;;;;;5094916;28;20380;-84
2022/05/14 00:08:47;;;;;;;14.48;5.20;;;13.30;99.90;;;;;;5094828;28;20034;-85
2022/05/14 00:14:03;;;;;;;10.48;5.05;;;13.30;99.90;;;;;;5094735;28;20074;-84
2022/05/14 00:16:31;;;;;;;13.02;5.20;;;13.30;99.90;;;;;;5094792;28;20038;-82
2022/05/14 00:19:08;;;;;;;8.73;4.50;;;13.30;99.90;;;;;;5094493;28;20061;-84
2022/05/14 00:21:35;;;;;;;17.42;6.80;;;13.30;99.90;;;;;;5094773;28;20032;-82
2022/05/14 00:24:03;;;;;;;10.95;4.72;;;13.20;99.90;;;;;;5094413;28;20023;-82
2022/05/14 00:26:29;;;;;;;15.30;5.25;;;13.20;99.90;;;;;;5092911;28;20498;-83
2022/05/14 00:28:54;;;;;;;12.00;5.05;;;13.20;99.90;;;;;;5093188;28;20028;-81
2022/05/14 00:31:20;;;;;;;13.90;6.45;;;13.10;99.90;;;;;;5094549;28;20103;-82
2022/05/14 00:33:50;;;;;;;13.80;4.63;;;13.20;99.90;;;;;;5093004;28;20028;-83
2022/05/14 00:36:16;;;;;;;18.98;5.07;;;13.20;99.90;;;;;;5094359;28;20428;-81
2022/05/14 00:38:42;;;;;;;16.80;4.68;;;13.10;99.90;;;;;;5094517;28;20063;-83
2022/05/14 00:41:08;;;;;;;15.40;5.55;;;13.10;99.90;;;;;;5093904;28;20374;-81
2022/05/14 00:43:47;;;;;;;13.60;5.03;;;13.10;99.90;;;;;;5094083;28;20023;-82
2022/05/14 00:46:18;;;;;;;10.00;4.20;;;13.10;99.90;;;;;;5094258;28;20028;-82
2022/05/14 00:48:46;;;;;;;13.38;5.25;;;13.10;99.90;;;;;;5094209;28;20024;-82
2022/05/14 00:51:16;;;;;;;14.07;5.38;;;13.10;99.90;;;;;;5094150;28;20024;-82
2022/05/14 00:53:45;;;;;;;14.82;4.68;;;13.10;99.90;;;;;;5094048;28;20020;-83
2022/05/14 00:56:16;;;;;;;23.10;5.22;;;13.10;99.90;;;;;;5093573;28;20428;-82
2022/05/14 00:58:57;;;;;;;18.58;4.93;;;13.10;99.90;;;;;;5092229;28;20051;-82
2022/05/14 01:01:23;;;;;;;35.25;5.93;;;13.10;99.90;;;;;;5094068;28;20016;-82
2022/05/14 01:03:49;;;;;;;13.73;4.78;;;13.10;99.90;;;;;;5093427;28;20028;-82
2022/05/14 01:06:17;;;;;;;16.58;5.47;;;13.10;99.90;;;;;;5092558;28;20032;-84
2022/05/14 01:08:44;;;;;;;18.38;5.60;;;13.10;99.90;;;;;;5093823;28;20540;-81
2022/05/14 01:11:12;;;;;;;11.30;4.93;;;13.10;99.90;;;;;;5093441;28;20036;-81
2022/05/14 01:13:38;;;;;;;15.02;5.68;;;13.10;99.90;;;;;;5093511;28;20020;-82
2022/05/14 01:16:04;;;;;;;9.52;4.43;;;13.10;99.90;;;;;;5093543;28;20023;-81
2022/05/14 01:18:33;;;;;;;10.48;4.78;;;13.00;99.90;;;;;;5092211;28;20028;-81
2022/05/14 01:21:23;;;;;;;15.32;5.43;;;13.00;99.90;;;;;;5093429;28;20023;-83
2022/05/14 01:26:47;;;;;;;10.15;4.47;;;13.00;99.90;;;;;;5093164;28;20100;-83
2022/05/14 01:29:24;;;;;;;13.30;5.35;;;13.00;99.90;;;;;;5092057;28;20077;-84
2022/05/14 01:31:52;;;;;;;19.02;5.57;;;13.00;99.90;;;;;;5093208;28;20024;-84
2022/05/14 01:34:22;;;;;;;17.60;5.35;;;13.10;99.90;;;;;;5093133;28;20024;-84
2022/05/14 01:36:48;;;;;;;19.85;5.57;;;13.10;99.90;;;;;;5091900;28;20020;-83
2022/05/14 01:39:14;;;;;;;11.27;4.68;;;13.10;99.90;;;;;;5091964;28;20020;-83
2022/05/14 01:41:41;;;;;;;12.10;4.93;;;13.10;99.90;;;;;;5092688;28;20037;-83
2022/05/14 01:44:07;;;;;;;21.13;5.20;;;13.10;99.90;;;;;;5092966;28;20032;-83
2022/05/14 01:46:33;;;;;;;12.63;5.03;;;13.10;99.90;;;;;;5093023;28;20035;-83
2022/05/14 01:49:05;;;;;;;10.73;4.60;;;13.10;99.90;;;;;;5093004;28;20379;-83
2022/05/14 01:51:31;;;;;;;12.85;5.25;;;13.10;99.90;;;;;;5093064;28;20034;-83
2022/05/14 01:53:58;;;;;;;8.15;4.72;;;13.10;99.90;;;;;;5091414;28;20032;-83
2022/05/14 01:56:24;;;;;;;19.63;5.78;;;13.10;99.90;;;;;;5092502;28;20051;-83
2022/05/14 01:58:50;;;;;;;12.65;5.20;;;13.20;99.90;;;;;;5092877;28;20418;-84
2022/05/14 02:01:18;;;;;;;11.18;4.55;;;13.20;99.90;;;;;;5092766;28;20020;-83
2022/05/14 02:03:55;;;;;;;12.32;5.10;;;13.20;99.90;;;;;;5092772;28;20031;-83
2022/05/14 02:06:21;;;;;;;13.85;5.20;;;13.30;99.90;;;;;;5091349;28;20028;-83
2022/05/14 02:08:48;;;;;;;11.02;4.32;;;13.40;99.90;;;;;;5091531;28;20476;-83
2022/05/14 02:11:14;;;;;;;12.65;5.07;;;13.40;99.90;;;;;;5091492;28;20085;-83
2022/05/14 02:13:41;;;;;;;13.85;4.60;;;13.40;99.90;;;;;;5092616;28;20028;-83
2022/05/14 02:16:07;;;;;;;14.05;4.35;;;13.50;99.90;;;;;;5091468;28;20031;-83
2022/05/14 02:18:33;;;;;;;13.13;4.70;;;13.50;99.90;;;;;;5092709;28;20099;-83
2022/05/14 02:20:59;;;;;;;16.63;5.60;;;13.50;99.90;;;;;;5092312;28;20107;-83
2022/05/14 02:23:28;;;;;;;14.93;6.07;;;13.60;99.90;;;;;;5092231;28;20097;-84
2022/05/14 02:25:54;;;;;;;17.77;5.70;;;13.60;99.90;;;;;;5092289;28;20033;-83
2022/05/14 02:28:19;;;;;;;15.18;5.63;;;13.70;99.90;;;;;;5092196;28;20961;-83
2022/05/14 02:30:45;;;;;;;21.58;6.38;;;13.60;99.90;;;;;;5092717;28;20024;-83
2022/05/14 02:33:17;;;;;;;14.38;6.60;;;13.60;99.90;;;;;;5092373;28;20028;-83
2022/05/14 02:35:43;;;;;;;9.25;4.55;;;13.70;99.90;;;;;;5092363;28;20042;-83
2022/05/14 02:38:14;;;;;;;18.25;5.68;;;13.70;99.90;;;;;;5092461;28;20074;-84
2022/05/14 02:40:39;;;;;;;13.30;5.47;;;13.70;99.90;;;;;;5092161;28;20406;-83
2022/05/14 02:43:06;;;;;;;8.75;3.40;;;13.60;99.90;;;;;;5091064;28;20108;-83
2022/05/14 02:45:31;;;;;;;6.93;3.42;;;13.60;99.90;;;;;;5092612;28;20443;-83
2022/05/14 02:47:57;;;;;;;7.63;3.30;;;13.50;99.90;;;;;;5092568;28;20059;-83
2022/05/14 02:50:23;;;;;;;3.17;2.33;;;13.40;99.90;;;;;;5092264;28;20051;-83
2022/05/14 02:52:57;;;;;;;7.82;3.45;;;13.40;99.90;;;;;;5092383;28;20460;-83
2022/05/14 02:55:23;;;;;;;4.90;2.70;;;13.30;99.90;;;;;;5092193;28;20020;-83
2022/05/14 02:57:48;;;;;;;7.00;2.88;;;13.20;99.90;;;;;;5092327;28;20082;-84
2022/05/14 03:00:18;;;;;;;4.97;3.10;;;13.20;99.90;;;;;;5092271;28;20020;-81
2022/05/14 03:02:44;;;;;;;10.27;3.35;;;13.10;99.90;;;;;;5092226;28;20016;-81
2022/05/14 03:05:14;;;;;;;6.28;3.05;;;13.00;99.90;;;;;;5092056;28;20101;-81
2022/05/14 03:07:41;;;;;;;10.82;4.47;;;12.90;99.90;;;;;;5091975;28;20391;-81
2022/05/14 03:10:07;;;;;;;9.15;3.63;;;12.80;99.90;;;;;;5092007;28;20020;-81
2022/05/14 03:12:33;;;;;;;10.70;4.22;;;12.70;99.90;;;;;;5092183;28;20028;-81
2022/05/14 03:15:01;;;;;;;15.07;5.10;;;12.60;99.90;;;;;;5090837;28;20158;-81
2022/05/14 03:17:27;;;;;;;5.90;3.00;;;12.60;99.90;;;;;;5092233;28;20047;-81
2022/05/14 03:19:52;;;;;;;8.45;3.30;;;12.50;99.90;;;;;;5092201;28;20059;-81
2022/05/14 03:22:18;;;;;;;7.95;3.42;;;12.50;99.90;;;;;;5094488;28;20032;-81
2022/05/14 03:24:45;;;;;;;11.90;4.50;;;12.50;99.90;;;;;;5093985;28;20024;-81
2022/05/14 03:27:12;;;;;;;8.85;4.18;;;12.50;99.90;;;;;;5095726;28;20056;-81
2022/05/14 03:29:39;;;;;;;9.18;4.03;;;12.50;99.90;;;;;;5095586;28;20024;-81
2022/05/14 03:32:05;;;;;;;8.02;3.75;;;12.50;99.90;;;;;;5095642;28;20035;-81
2022/05/14 03:34:32;;;;;;;10.32;4.60;;;12.50;99.90;;;;;;5095482;28;20028;-82
2022/05/14 03:36:58;;;;;;;18.65;6.63;;;12.40;99.90;;;;;;5095658;28;20035;-81
2022/05/14 03:39:24;;;;;;;12.25;6.28;;;12.50;99.90;;;;;;5095086;28;20021;-81
2022/05/14 03:41:50;;;;;;;10.18;5.50;;;12.50;99.90;;;;;;5095467;28;20020;-81
2022/05/14 03:44:17;;;;;;;19.70;6.22;;;12.50;99.90;;;;;;5093965;28;20032;-81
2022/05/14 03:46:43;;;;;;;13.52;6.90;;;12.60;99.90;;;;;;5094042;28;20498;-82
2022/05/14 03:49:09;;;;;;;15.88;6.68;;;12.70;99.90;;;;;;5095405;28;20095;-82
2022/05/14 03:51:35;;;;;;;16.52;6.47;;;12.70;99.90;;;;;;5095211;28;20082;-82
2022/05/14 03:54:04;;;;;;;19.85;7.45;;;12.80;99.90;;;;;;5094490;28;20156;-81
2022/05/14 03:56:32;;;;;;;22.98;5.75;;;12.80;99.90;;;;;;5095036;28;20066;-81
2022/05/14 03:58:58;;;;;;;18.63;6.43;;;12.80;99.90;;;;;;5095264;28;20517;-81
2022/05/14 04:01:23;;;;;;;14.10;5.18;;;12.80;99.90;;;;;;5094990;28;20032;-82
2022/05/14 04:03:49;;;;;;;16.58;5.93;;;12.80;99.90;;;;;;5095060;28;20028;-81
2022/05/14 04:06:18;;;;;;;18.13;6.20;;;12.90;99.90;;;;;;5095087;28;20028;-81
2022/05/14 04:08:44;;;;;;;15.50;6.53;;;12.90;99.90;;;;;;5094968;28;20024;-81
2022/05/14 04:11:09;;;;;;;12.35;5.78;;;12.90;99.90;;;;;;5094691;28;20107;-81
2022/05/14 04:13:36;;;;;;;17.05;6.03;;;12.90;99.90;;;;;;5094828;28;20062;-81
2022/05/14 04:16:08;;;;;;;27.60;7.68;;;12.90;99.90;;;;;;5094840;28;20543;-82
2022/05/14 04:18:33;;;;;;;22.30;6.82;;;13.00;99.90;;;;;;5094615;28;20020;-81
2022/05/14 04:21:00;;;;;;;22.40;6.50;;;13.10;99.90;;;;;;5094727;28;20070;-81
2022/05/14 04:23:28;;;;;;;24.55;5.57;;;13.00;99.90;;;;;;5094665;28;20035;-82
2022/05/14 04:25:56;;;;;;;14.15;5.20;;;13.10;99.90;;;;;;5094296;28;20024;-82
2022/05/14 04:28:22;;;;;;;13.40;5.68;;;13.10;99.90;;;;;;5094416;28;20423;-81
2022/05/14 04:30:49;;;;;;;25.48;7.22;;;13.10;99.90;;;;;;5093140;28;20077;-81
2022/05/14 04:33:16;;;;;;;18.65;5.70;;;13.10;99.90;;;;;;5093462;28;20515;-81
2022/05/14 04:35:42;;;;;;;20.85;6.63;;;13.20;99.90;;;;;;5094303;28;20016;-81
2022/05/14 04:38:08;;;;;;;15.48;5.40;;;13.20;99.90;;;;;;5094270;28;20027;-81
2022/05/14 04:40:38;;;;;;;21.52;6.47;;;13.30;99.90;;;;;;5094005;28;20031;-82
2022/05/14 04:43:08;;;;;;;14.80;5.43;;;13.40;99.90;;;;;;5092919;28;20024;-82
2022/05/14 04:45:34;;;;;;;19.40;5.07;;;13.40;99.90;;;;;;5094207;28;20036;-81
2022/05/14 04:48:00;;;;;;;29.98;5.80;;;13.50;99.90;;;;;;5094188;28;20027;-80
2022/05/14 04:50:27;;;;;;;12.57;5.55;;;13.50;99.90;;;;;;5094343;28;20024;-81
2022/05/14 04:52:52;;;;;;;18.30;4.13;;;13.60;99.90;;;;;;5093899;28;20024;-81
2022/05/14 04:55:19;;;;;;;16.00;5.45;;;13.60;99.90;;;;;;5093845;28;20388;-81
2022/05/14 04:57:44;;;;;;;19.40;5.25;;;13.70;99.90;;;;;;5093852;28;20051;-81
2022/05/14 05:00:16;;;;;;;18.55;5.03;;;13.80;99.90;;;;;;5093980;28;20371;-81
2022/05/14 05:05:28;;;;;;;15.85;4.90;;;13.90;99.90;;;;;;5094186;28;20491;-82
2022/05/14 05:07:54;;;;;;;25.63;5.30;;;13.90;99.90;;;;;;5092403;28;20111;-81
2022/05/14 05:10:20;;;;;;;17.90;5.72;;;13.90;99.90;;;;;;5092119;28;20118;-82
2022/05/14 05:12:45;;;;;;;19.90;4.70;;;13.90;99.90;;;;;;5093836;28;20073;-82
2022/05/14 05:15:11;;;;;;;19.90;4.68;;;13.90;99.90;;;;;;5093618;28;20020;-83
2022/05/14 05:17:37;;;;;;;19.10;6.55;;;13.90;99.90;;;;;;5093342;28;20361;-81
2022/05/14 05:20:04;;;;;;;28.23;6.45;;;14.00;99.90;;;;;;5093198;28;20455;-81
2022/05/14 05:22:30;;;;;;;19.10;4.90;;;13.90;99.90;;;;;;5091875;28;20032;-81
2022/05/14 05:24:56;;;;;;;35.40;8.00;;;14.00;99.90;;;;;;5092734;28;20032;-82
2022/05/14 05:27:22;;;;;;;21.33;5.70;;;14.00;99.90;;;;;;5093300;28;20039;-83
2022/05/14 05:29:51;;;;;;;16.08;4.75;;;14.10;99.90;;;;;;5092258;28;20020;-82
2022/05/14 05:32:17;;;;;;;11.25;4.93;;;14.10;99.90;;;;;;5093261;28;20024;-82
2022/05/14 05:34:51;;;;;;;16.23;5.00;;;14.20;99.90;;;;;;5091658;28;20027;-84
2022/05/14 05:37:17;;;;;;;28.13;5.97;;;14.20;99.90;;;;;;5093232;28;20539;-83
2022/05/14 05:39:45;;;;;;;21.38;5.50;;;14.20;99.90;;;;;;5092777;28;20345;-84
2022/05/14 05:42:10;;;;;;;26.50;6.70;;;14.30;99.90;;;;;;5093193;28;20024;-81
2022/05/14 05:44:41;;;;;;;15.45;5.90;;;14.30;99.90;;;;;;5092888;28;20082;-83
2022/05/14 05:47:07;;;;;;;17.20;5.93;;;14.40;99.90;;;;;;5093020;28;20024;-87
2022/05/14 05:49:37;;;;;;;20.70;5.65;;;14.40;99.90;;;;;;5091821;28;20028;-83
2022/05/14 05:52:03;;;;;;;31.60;6.53;;;14.50;99.90;;;;;;5093076;28;20074;-81
2022/05/14 05:57:55;;;;;;;21.00;7.10;;;14.60;99.90;;;;;;5092724;28;20105;-84
2022/05/14 06:00:24;;;;;;;23.80;6.90;;;14.50;99.90;;;;;;5092806;28;20051;-81
2022/05/14 06:02:56;;;;;;;18.90;6.57;;;14.60;99.90;;;;;;5092754;28;20095;-82
2022/05/14 06:05:22;;;;;;;20.17;6.40;;;14.60;99.90;;;;;;5092817;28;20028;-81
2022/05/14 06:07:49;;;;;;;21.27;6.10;;;14.70;99.90;;;;;;5092798;28;20416;-83
2022/05/14 06:10:18;;;;;;;23.92;6.45;;;14.70;99.90;;;;;;5092547;28;20030;-83
2022/05/14 06:12:52;;;;;;;25.90;7.40;;;14.80;99.90;;;;;;5092637;28;20469;-81
2022/05/14 06:15:19;;;;;;;35.67;6.43;;;14.80;99.90;;;;;;5092789;28;20028;-82
2022/05/14 06:18:04;;;;;;;28.25;7.05;;;14.90;99.90;;;;;;5092731;28;20069;-83
2022/05/14 06:20:30;;;;;;;16.15;6.03;;;15.00;99.90;;;;;;5091513;28;20032;-82
2022/05/14 06:22:58;;;;;;;19.83;5.75;;;15.00;99.90;;;;;;5091421;28;20082;-83
2022/05/14 06:25:24;;;;;;;18.13;5.88;;;15.00;99.90;;;;;;5092131;28;20537;-84
2022/05/14 06:27:52;;;;;;;18.63;5.93;;;15.10;99.90;;;;;;5092717;28;20095;-83
2022/05/14 06:30:18;;;;;;;24.85;6.35;;;15.10;99.90;;;;;;5091387;28;20472;-82
2022/05/14 06:32:46;;;;;;;23.00;5.95;;;15.20;99.90;;;;;;5092721;28;20024;-83
2022/05/14 06:35:12;;;;;;;21.95;6.03;;;15.20;99.90;;;;;;5092499;28;20420;-84
2022/05/14 06:37:41;;;;;;;19.02;5.30;;;15.20;99.90;;;;;;5092443;28;20103;-82
2022/05/14 06:40:08;;;;;;;20.40;4.93;;;15.30;99.90;;;;;;5092293;28;20024;-82
2022/05/14 06:42:36;;;;;;;20.13;4.80;;;15.30;99.90;;;;;;5092471;28;20024;-82
2022/05/14 06:45:02;;;;;;;23.25;4.80;;;15.30;99.90;;;;;;5092346;28;20046;-82
2022/05/14 06:47:30;;;;;;;19.50;4.13;;;15.40;99.90;;;;;;5091151;28;20111;-81
2022/05/14 06:50:05;;;;;;;18.30;5.32;;;15.40;99.90;;;;;;5092544;28;20039;-82
2022/05/14 06:52:32;;;;;;;13.07;3.97;;;15.40;99.90;;;;;;5092348;28;20032;-81
2022/05/14 06:54:59;;;;;;;10.25;3.33;;;15.50;99.90;;;;;;5092012;28;20035;-81
2022/05/14 06:57:33;;;;;;;20.23;3.45;;;15.50;99.90;;;;;;5094672;28;20052;-84
2022/05/14 06:59:59;;;;;;;22.38;4.65;;;15.60;99.90;;;;;;5096205;28;20016;-84
2022/05/14 07:02:28;;;;;;;13.80;4.13;;;15.70;99.90;;;;;;5096184;28;20099;-82
2022/05/14 07:07:42;;;;;;;28.17;5.10;;;15.70;99.90;;;;;;5095980;28;20073;-82
2022/05/14 07:10:08;;;;;;;22.63;4.72;;;15.80;99.90;;;;;;5095656;28;20051;-81
2022/05/14 07:12:34;;;;;;;11.75;3.80;;;15.90;99.90;;;;;;5095881;28;20025;-82
2022/05/14 07:15:01;;;;;;;13.88;2.83;;;16.00;99.90;;;;;;5094522;28;20101;-81
2022/05/14 07:17:28;;;;;;;20.23;3.63;;;16.00;99.90;;;;;;5095854;28;20512;-81
2022/05/14 07:19:54;;;;;;;20.30;3.65;;;16.00;99.90;;;;;;5095770;28;20069;-81
2022/05/14 07:22:19;;;;;;;14.27;4.00;;;16.10;99.90;;;;;;5094565;28;20106;-84
2022/05/14 07:24:45;;;;;;;15.88;4.10;;;16.20;99.90;;;;;;5095295;28;20111;-81
2022/05/14 07:27:14;;;;;;;20.83;3.72;;;16.20;99.90;;;;;;5094226;28;20547;-81
2022/05/14 07:29:42;;;;;;;16.85;3.40;;;16.20;99.90;;;;;;5095742;28;20045;-82
2022/05/14 07:32:09;;;;;;;19.38;3.63;;;16.30;99.90;;;;;;5094402;28;20024;-82
2022/05/14 07:34:34;;;;;;;13.98;3.28;;;16.40;99.90;;;;;;5094182;28;20468;-81
2022/05/14 07:37:16;;;;;;;13.95;3.05;;;16.40;99.90;;;;;;5094057;28;20031;-82
2022/05/14 07:39:55;;;;;;;20.23;3.20;;;16.40;99.90;;;;;;5095228;28;20020;-81
2022/05/14 07:42:37;;;;;;;19.65;3.85;;;16.50;99.90;;;;;;5095372;28;20050;-81
2022/05/14 07:45:05;;;;;;;17.17;2.85;;;16.40;99.90;;;;;;5095378;28;20020;-82
2022/05/14 07:47:30;;;;;;;19.67;3.58;;;16.50;99.90;;;;;;5095104;28;20503;-82
2022/05/14 07:49:57;;;;;;;21.17;3.15;;;16.50;99.90;;;;;;5095382;28;20093;-82
2022/05/14 07:52:23;;;;;;;15.63;3.38;;;16.60;99.90;;;;;;5095256;28;20021;-82
2022/05/14 07:54:49;;;;;;;13.82;3.47;;;16.70;99.90;;;;;;5094678;28;20128;-81
2022/05/14 07:57:18;;;;;;;11.60;3.55;;;16.70;99.90;;;;;;5093576;28;20052;-81
2022/05/14 07:59:44;;;;;;;22.00;3.55;;;16.80;99.90;;;;;;5093646;28;20024;-82
2022/05/14 08:02:26;;;;;;;15.65;3.35;;;16.90;99.90;;;;;;5095139;28;20035;-85
2022/05/14 08:04:52;;;;;;;13.45;3.85;;;16.90;99.90;;;;;;5094989;28;20028;-82
2022/05/14 08:07:18;;;;;;;15.02;3.50;;;17.00;99.90;;;;;;5094411;28;20024;-82
2022/05/14 08:09:44;;;;;;;19.80;4.38;;;17.00;99.90;;;;;;5094171;28;20025;-82
2022/05/14 08:12:11;;;;;;;17.50;3.38;;;17.00;99.90;;;;;;5095338;28;20027;-82
2022/05/14 08:14:40;;;;;;;12.45;3.58;;;17.10;99.90;;;;;;5094433;28;20036;-81
2022/05/14 08:17:08;;;;;;;12.80;3.45;;;17.10;99.90;;;;;;5094904;28;20039;-82
2022/05/14 08:19:33;;;;;;;19.52;4.15;;;17.10;99.90;;;;;;5094696;28;20373;-82
2022/05/14 08:24:43;;;;;;;16.60;3.60;;;17.30;99.90;;;;;;5094075;28;20123;-83
2022/05/14 08:27:10;;;;;;;17.92;4.53;;;17.30;99.90;;;;;;5094614;28;20060;-84
2022/05/14 08:29:37;;;;;;;16.45;3.35;;;17.40;99.90;;;;;;5094590;28;20028;-83
2022/05/14 08:32:03;;;;;;;18.92;3.65;;;17.40;99.90;;;;;;5094359;28;20396;-81
2022/05/14 08:34:29;;;;;;;16.38;4.40;;;17.40;99.90;;;;;;5093012;28;20479;-82
2022/05/14 08:36:56;;;;;;;15.65;2.90;;;17.40;99.90;;;;;;5094542;28;20020;-82
2022/05/14 08:39:22;;;;;;;16.95;3.25;;;17.30;99.90;;;;;;5093888;28;20031;-81
2022/05/14 08:41:49;;;;;;;16.95;3.47;;;17.30;99.90;;;;;;5094298;28;20460;-82
2022/05/14 08:44:19;;;;;;;14.57;3.42;;;17.30;99.90;;;;;;5094230;28;20434;-81
2022/05/14 08:46:53;;;;;;;12.43;3.88;;;17.40;99.90;;;;;;5094435;28;20479;-82
2022/05/14 08:49:34;;;;;;;18.08;3.40;;;17.30;99.90;;;;;;5094183;28;20418;-84
2022/05/14 08:52:02;;;;;;;14.18;3.67;;;17.40;99.90;;;;;;5092713;28;20507;-81
2022/05/14 08:54:28;;;;;;;17.02;3.25;;;17.50;99.90;;;;;;5093577;28;20024;-81
2022/05/14 08:57:06;;;;;;;17.35;3.03;;;17.50;99.90;;;;;;5092632;28;20568;-82
2022/05/14 08:59:49;;;;;;;20.25;3.45;;;17.50;99.90;;;;;;5092642;28;20024;-82
2022/05/14 09:02:24;;;;;;;13.63;3.35;;;17.50;99.90;;;;;;5093935;28;20024;-82
2022/05/14 09:05:00;;;;;;;29.98;4.70;;;17.50;99.90;;;;;;5093920;28;20028;-82
2022/05/14 09:07:26;;;;;;;11.35;3.08;;;17.60;99.90;;;;;;5093906;28;20043;-82
2022/05/14 09:09:53;;;;;;;20.63;4.68;;;17.60;99.90;;;;;;5093488;28;20035;-82
2022/05/14 09:12:24;;;;;;;13.48;3.75;;;17.70;99.90;;;;;;5093754;28;20499;-82
2022/05/14 09:14:58;;;;;;;18.27;4.43;;;17.70;99.90;;;;;;5093540;28;20024;-82
2022/05/14 09:17:28;;;;;;;16.17;3.55;;;17.70;99.90;;;;;;5093821;28;20021;-82
2022/05/14 09:19:56;;;;;;;16.88;3.63;;;17.70;99.90;;;;;;5093243;28;20020;-82
2022/05/14 09:22:44;;;;;;;17.35;3.35;;;17.70;99.90;;;;;;5092326;28;20024;-82
2022/05/14 09:25:32;;;;;;;14.20;3.58;;;17.70;99.90;;;;;;5093316;28;20456;-82
2022/05/14 09:28:05;;;;;;;22.10;4.13;;;17.70;99.90;;;;;;5093489;28;20016;-82
2022/05/14 09:30:53;;;;;;;23.15;4.00;;;17.70;99.90;;;;;;5093482;28;20123;-82
2022/05/14 09:33:27;;;;;;;12.43;3.67;;;17.80;99.90;;;;;;5094869;28;20023;-82
2022/05/14 09:36:04;;;;;;;7.68;3.22;;;17.90;99.90;;;;;;5101914;28;20055;-82
2022/05/14 09:38:30;;;;;;;16.75;3.50;;;17.90;99.90;;;;;;5093002;28;20052;-82
2022/05/14 09:41:18;;;;;;;12.40;3.17;;;17.90;99.90;;;;;;5093075;28;20104;-82
2022/05/14 09:43:45;;;;;;;17.27;3.33;;;17.80;99.90;;;;;;5093063;28;20020;-85
2022/05/14 09:46:25;;;;;;;20.38;3.97;;;17.80;99.90;;;;;;5093309;28;20024;-82
2022/05/14 09:48:54;;;;;;;12.45;2.95;;;18.00;99.90;;;;;;5093388;28;20107;-82
2022/05/14 09:51:36;;;;;;;13.73;3.40;;;18.10;99.90;;;;;;5093271;28;20055;-82
2022/05/14 09:54:24;;;;;;;19.13;3.88;;;18.20;99.90;;;;;;5092698;28;20387;-82
2022/05/14 09:57:08;;;;;;;14.90;3.97;;;18.20;99.90;;;;;;5093083;28;20036;-82
2022/05/14 10:00:00;;;;;;;18.60;4.32;;;18.20;99.90;;;;;;5093160;28;20040;-82
2022/05/14 10:02:44;;;;;;;12.40;2.95;;;18.30;99.90;;;;;;5093174;28;20056;-82
2022/05/14 10:05:42;;;;;;;8.73;2.70;;;18.40;99.90;;;;;;5092994;28;20032;-82
2022/05/14 10:08:30;;;;;;;12.80;3.08;;;18.60;99.90;;;;;;5092741;28;20103;-82
2022/05/14 10:11:08;;;;;;;15.27;3.58;;;18.60;99.90;;;;;;5092725;28;20476;-82
2022/05/14 10:13:40;;;;;;;22.48;3.60;;;18.70;99.90;;;;;;5092677;28;20055;-85
2022/05/14 10:16:15;;;;;;;18.60;3.47;;;18.90;99.90;;;;;;5091745;28;20401;-83
2022/05/14 10:19:02;;;;;;;18.95;3.78;;;19.00;99.90;;;;;;5092643;28;20016;-82
2022/05/14 10:21:47;;;;;;;13.50;2.92;;;19.10;99.90;;;;;;5092920;28;20020;-82
2022/05/14 10:27:31;;;;;;;14.88;3.20;;;19.10;99.90;;;;;;5092773;28;20088;-83
2022/05/14 10:30:09;;;;;;;10.95;3.25;;;19.10;99.90;;;;;;5092620;28;20028;-82
2022/05/14 10:32:34;;;;;;;14.30;3.08;;;19.20;99.90;;;;;;5094269;28;20020;-84
2022/05/14 10:35:24;;;;;;;12.93;3.00;;;19.20;99.90;;;;;;5096625;28;20540;-82
2022/05/14 10:38:12;;;;;;;14.13;3.35;;;19.20;99.90;;;;;;5095331;28;20023;-82
2022/05/14 10:40:44;;;;;;;15.23;3.75;;;19.10;99.90;;;;;;5096712;28;20028;-82
2022/05/14 10:43:43;;;;;;;14.40;3.50;;;19.00;99.90;;;;;;5096736;28;20031;-83
2022/05/14 10:46:18;;;;;;;13.77;3.47;;;19.00;99.90;;;;;;5096609;28;20025;-83
2022/05/14 10:49:22;;;;;;;17.42;4.25;;;19.10;99.90;;;;;;5096606;28;20460;-82
2022/05/14 10:51:50;;;;;;;10.95;2.63;;;19.10;99.90;;;;;;5095528;28;20036;-82
2022/05/14 10:54:20;;;;;;;11.75;3.47;;;19.00;99.90;;;;;;5096073;28;20031;-82
2022/05/14 10:57:00;;;;;;;18.42;3.58;;;18.90;99.90;;;;;;5096400;28;20059;-83
2022/05/14 11:00:02;;;;;;;15.50;3.88;;;19.00;99.90;;;;;;5096375;28;20400;-83
2022/05/14 11:02:31;;;;;;;11.60;3.15;;;19.20;99.90;;;;;;5096079;28;20470;-82
2022/05/14 11:04:57;;;;;;;15.75;3.25;;;19.20;99.90;;;;;;5096160;28;20055;-81
2022/05/14 11:07:39;;;;;;;12.35;3.25;;;19.10;99.90;;;;;;5096209;28;20024;-82
2022/05/14 11:10:31;;;;;;;15.38;3.08;;;19.10;99.90;;;;;;5095973;28;20023;-84
2022/05/14 11:13:23;;;;;;;14.68;3.80;;;19.10;99.90;;;;;;5096147;28;20024;-84
2022/05/14 11:16:10;;;;;;;17.40;4.38;;;19.20;99.90;;;;;;5095971;28;20028;-83
2022/05/14 11:18:55;;;;;;;10.65;3.33;;;19.20;99.90;;;;;;5094648;28;20032;-84
2022/05/14 11:21:41;;;;;;;15.88;3.45;;;19.10;99.90;;;;;;5096056;28;20031;-84
2022/05/14 11:24:11;;;;;;;13.90;3.03;;;19.00;99.90;;;;;;5095588;28;20414;-85
2022/05/14 11:26:52;;;;;;;19.38;3.40;;;19.10;99.90;;;;;;5094592;28;20024;-85
2022/05/14 11:29:21;;;;;;;9.82;2.45;;;19.20;99.90;;;;;;5095657;28;20024;-84
2022/05/14 11:32:23;;;;;;;27.60;3.10;;;19.20;99.90;;;;;;5095731;28;20118;-84
2022/05/14 11:34:54;;;;;;;11.02;2.58;;;19.20;99.90;;;;;;5093349;28;20036;-84
2022/05/14 11:37:33;;;;;;;17.52;3.83;;;19.40;99.90;;;;;;5093556;28;20031;-85
2022/05/14 11:40:27;;;;;;;12.07;3.00;;;19.50;99.90;;;;;;5095019;28;20064;-84
2022/05/14 11:43:29;;;;;;;14.07;2.72;;;19.50;99.90;;;;;;5093821;28;20032;-85
2022/05/14 11:46:09;;;;;;;9.32;2.25;;;19.50;98.50;;;;;;5094282;28;20043;-84
2022/05/14 11:48:57;;;;;;;12.35;2.88;;;19.40;98.60;;;;;;5095577;28;20024;-84
2022/05/14 11:51:28;;;;;;;15.35;2.65;;;19.30;98.50;;;;;;5095275;28;20078;-84
2022/05/14 11:54:04;;;;;;;13.38;3.63;;;19.30;99.90;;;;;;5094829;28;20024;-84
2022/05/14 11:56:31;;;;;;;19.15;3.00;;;19.30;99.90;;;;;;5094741;28;20126;-84
2022/05/14 11:59:15;;;;;;;21.52;3.63;;;19.30;99.70;;;;;;5094114;28;20024;-84
2022/05/14 12:01:45;;;;;;;21.70;3.17;;;19.40;99.90;;;;;;5094012;28;20058;-84
2022/05/14 12:04:29;;;;;;;15.52;3.58;;;19.40;99.90;;;;;;5093899;28;20039;-85
2022/05/14 12:07:04;;;;;;;23.88;4.28;;;19.30;99.90;;;;;;5094096;28;20039;-85
2022/05/14 12:09:41;;;;;;;;;;;19.40;99.90;;;;;;5092777;28;20028;-84
2022/05/14 12:12:52;;;;;;;16.92;3.78;;;19.50;99.90;;;;;;5093993;28;19900;-85
2022/05/14 12:15:22;;;;;;;9.75;2.78;;;19.80;99.90;;;;;;5091842;28;20041;-85
2022/05/14 12:17:55;;;;;;;17.42;3.38;;;19.90;98.70;;;;;;5091799;28;20058;-85
2022/05/14 12:20:27;;;;;;;10.77;2.80;;;20.10;96.90;;;;;;5082603;28;20561;-85
2022/05/14 12:22:56;;;;;;;16.83;3.03;;;20.30;98.20;;;;;;5093080;28;20047;-85
2022/05/14 12:25:41;;;;;;;10.43;3.13;;;20.30;95.10;;;;;;5093574;28;20047;-84
2022/05/14 12:28:26;;;;;;;14.13;2.47;;;20.30;95.00;;;;;;5093504;28;20380;-84
2022/05/14 12:34:05;;;;;;;12.07;2.83;;;20.50;95.90;;;;;;5083009;28;20469;-83
2022/05/14 12:36:37;;;;;;;11.90;2.60;;;20.50;96.80;;;;;;5093453;28;20022;-84
2022/05/14 12:39:14;;;;;;;13.52;3.25;;;20.60;94.40;;;;;;5092920;28;20012;-85
2022/05/14 12:41:41;;;;;;;14.90;3.30;;;20.70;97.70;;;;;;5093391;28;20468;-84
2022/05/14 12:44:13;;;;;;;14.95;4.25;;;20.70;93.10;;;;;;5093429;28;20028;-84
2022/05/14 12:46:48;;;;;;;9.68;2.85;;;20.80;84.60;;;;;;5093686;28;20032;-84
2022/05/14 12:49:44;;;;;;;13.45;2.83;;;20.60;90.80;;;;;;5092524;28;20032;-85
2022/05/14 12:52:16;;;;;;;17.50;3.08;;;20.60;92.50;;;;;;5092056;28;20122;-85
2022/05/14 12:55:02;;;;;;;15.35;2.95;;;20.80;91.50;;;;;;5091682;28;20080;-85
2022/05/14 12:57:30;;;;;;;10.80;2.80;;;20.70;93.20;;;;;;5056083;28;1034597;-84
2022/05/14 12:59:56;;;;;;;16.75;3.28;;;20.90;91.80;;;;;;5093970;28;20270;-85
2022/05/14 13:02:36;;;;;;;12.70;2.58;;;20.80;90.50;;;;;;5093883;28;20047;-85
2022/05/14 13:05:34;;;;;;;18.85;3.13;;;20.80;90.10;;;;;;5093807;28;20016;-85
2022/05/14 13:08:22;;;;;;;15.07;3.03;;;20.70;89.60;;;;;;5093533;28;20121;-85
2022/05/14 13:11:00;;;;;;;12.77;3.17;;;20.80;87.40;;;;;;5093607;28;20036;-85
2022/05/14 13:13:40;;;;;;;14.32;2.95;;;20.90;87.40;;;;;;5093955;28;20028;-84
2022/05/14 13:16:24;;;;;;;16.67;3.85;;;20.80;83.20;;;;;;5093920;28;20034;-84
2022/05/14 13:19:06;;;;;;;13.15;2.90;;;20.80;81.00;;;;;;5093713;28;20016;-84
2022/05/14 13:21:46;;;;;;;14.05;3.75;;;20.80;89.40;;;;;;5093724;28;20043;-84
2022/05/14 13:24:31;;;;;;;19.15;3.42;;;20.90;84.40;;;;;;5093357;28;20028;-86